createdAt,value
2023-02-08T00:03:48.647Z,-7.1
2023-02-08T00:09:26.076Z,-7.1
2023-02-08T00:15:02.580Z,-7.1
2023-02-08T00:20:40.814Z,-7.1
2023-02-08T00:26:19.674Z,-7
2023-02-08T00:31:58.214Z,-7
2023-02-08T00:37:19.892Z,-7.1
2023-02-08T00:42:57.872Z,-7.1
2023-02-08T00:48:35.855Z,-7.1
2023-02-08T00:54:12.913Z,-7.1
2023-02-08T00:59:49.398Z,-7.1
2023-02-08T01:05:42.152Z,-7.1
2023-02-08T01:11:19.955Z,-7.1
2023-02-08T01:16:41.291Z,-7.1
2023-02-08T01:22:03.038Z,-7.1
2023-02-08T01:27:25.782Z,-7.1
2023-02-08T01:32:47.807Z,-7
2023-02-08T01:38:09.603Z,-7
2023-02-08T01:43:31.773Z,-6.9
2023-02-08T01:49:09.836Z,-6.9
2023-02-08T01:54:45.983Z,-6.9
2023-02-08T02:00:23.739Z,-6.8
2023-02-08T02:06:00.863Z,-6.8
2023-02-08T02:11:37.787Z,-6.7
2023-02-08T02:17:15.331Z,-6.6
2023-02-08T02:22:55.348Z,-6.6
2023-02-08T02:28:31.829Z,-6.6
2023-02-08T02:34:10.014Z,-6.6
2023-02-08T02:39:46.565Z,-6.6
2023-02-08T02:45:22.980Z,-6.6
2023-02-08T02:51:00.454Z,-6.6
2023-02-08T02:56:21.838Z,-6.6
2023-02-08T03:01:58.764Z,-6.6
2023-02-08T03:07:06.426Z,-6.7
2023-02-08T03:12:43.223Z,-6.7
2023-02-08T03:18:18.880Z,-6.8
2023-02-08T03:23:55.967Z,-6.8
2023-02-08T03:29:17.443Z,-6.8
2023-02-08T03:34:39.268Z,-6.8
2023-02-08T03:40:17.385Z,-6.9
2023-02-08T03:45:54.122Z,-6.9
2023-02-08T03:51:31.412Z,-7
2023-02-08T03:57:08.151Z,-7.1
2023-02-08T04:02:29.897Z,-7.2
2023-02-08T04:07:51.407Z,-7.3
2023-02-08T04:13:28.455Z,-7.4
2023-02-08T04:19:05.109Z,-7.6
2023-02-08T04:24:41.182Z,-7.8
2023-02-08T04:30:19.028Z,-7.9
2023-02-08T04:35:57.024Z,-8
2023-02-08T04:41:34.359Z,-8.1
2023-02-08T04:47:11.828Z,-8.3
2023-02-08T04:52:50.275Z,-8.5
2023-02-08T04:58:28.114Z,-8.8
2023-02-08T05:04:05.340Z,-8.9
2023-02-08T05:09:42.757Z,-9.1
2023-02-08T05:15:21.907Z,-9.3
2023-02-08T05:21:00.000Z,-9.4
2023-02-08T05:26:38.226Z,-9.6
2023-02-08T05:32:17.204Z,-9.8
2023-02-08T05:37:54.619Z,-9.9
2023-02-08T05:43:31.668Z,-10
2023-02-08T05:49:11.998Z,-10.1
2023-02-08T05:54:18.614Z,-10
2023-02-08T05:59:55.870Z,-9.9
2023-02-08T06:10:40.231Z,-9.1
2023-02-08T06:16:20.005Z,-8.6
2023-02-08T06:21:58.800Z,-8.1
2023-02-08T06:27:34.548Z,-7.1
2023-02-08T06:33:15.660Z,-5.3
2023-02-08T06:38:53.915Z,-3.1
2023-02-08T06:44:31.518Z,-0.8
2023-02-08T06:50:18.523Z,4.3
2023-02-08T06:55:55.347Z,9.3
2023-02-08T07:01:32.541Z,14.4
2023-02-08T07:07:17.672Z,20
2023-02-08T07:12:53.901Z,24.7
2023-02-08T07:18:31.736Z,29.4
2023-02-08T07:23:53.355Z,33.1
2023-02-08T07:29:29.667Z,36.8
2023-02-08T07:35:09.667Z,40.4
2023-02-08T07:40:45.416Z,43.4
2023-02-08T07:46:22.472Z,41.4
2023-02-08T07:51:58.854Z,40.6
2023-02-08T07:57:37.778Z,39.6
2023-02-08T08:03:23.753Z,43.6
2023-02-08T08:09:03.660Z,48.1
2023-02-08T08:14:25.312Z,53.3
2023-02-08T08:20:04.701Z,58.1
2023-02-08T08:25:40.780Z,62.1
2023-02-08T08:31:20.477Z,65.8
2023-02-08T08:36:59.450Z,56.8
2023-02-08T08:42:37.628Z,51.3
2023-02-08T08:47:59.270Z,56.4
2023-02-08T08:53:36.650Z,63.8
2023-02-08T08:59:12.972Z,59.3
2023-02-08T09:04:34.959Z,54.2
2023-02-08T09:10:12.600Z,55.6
2023-02-08T09:15:50.130Z,64.7
2023-02-08T09:21:29.335Z,61.6
2023-02-08T09:27:06.674Z,56.2
2023-02-08T09:32:30.756Z,53.9
2023-02-08T09:38:07.382Z,58.4
2023-02-08T09:43:29.144Z,58.1
2023-02-08T09:49:17.052Z,55.9
2023-02-08T09:54:53.333Z,56.8
2023-02-08T10:00:17.616Z,64.1
2023-02-08T10:05:56.044Z,65.8
2023-02-08T10:11:27.151Z,58.9
2023-02-08T10:17:02.733Z,58.1
2023-02-08T10:22:40.466Z,59.1
2023-02-08T10:28:02.585Z,59.3
2023-02-08T10:33:42.548Z,55.4
2023-02-08T10:39:38.210Z,55
2023-02-08T10:45:39.255Z,56
2023-02-08T10:51:22.547Z,52.8
2023-02-08T10:57:06.238Z,50.4
2023-02-08T11:02:38.476Z,55.6
2023-02-08T11:08:22.732Z,61.6
2023-02-08T11:14:06.353Z,66.3
2023-02-08T11:19:57.299Z,61.6
2023-02-08T11:25:40.449Z,50.1
2023-02-08T11:31:25.017Z,46.9
2023-02-08T11:37:07.995Z,52.6
2023-02-08T11:42:51.336Z,56.8
2023-02-08T11:48:34.226Z,61.6
2023-02-08T11:53:57.553Z,64.4
2023-02-08T11:59:34.660Z,67.1
2023-02-08T12:10:04.101Z,51.5
2023-02-08T12:15:56.274Z,52.9
2023-02-08T12:21:37.286Z,57.3
2023-02-08T12:27:17.141Z,57.4
2023-02-08T12:33:10.025Z,58.1
2023-02-08T12:39:21.314Z,60
2023-02-08T12:44:59.207Z,60.1
2023-02-08T12:50:53.387Z,57.9
2023-02-08T12:56:16.485Z,52.2
2023-02-08T13:02:04.820Z,46.8
2023-02-08T13:07:50.039Z,42.3
2023-02-08T13:13:37.751Z,40.4
2023-02-08T13:19:30.028Z,43.3
2023-02-08T13:25:41.340Z,46
2023-02-08T13:31:22.681Z,45.3
2023-02-08T13:37:23.309Z,41.3
2023-02-08T13:43:03.169Z,36.9
2023-02-08T13:48:56.434Z,32.7
2023-02-08T13:54:48.435Z,30.3
2023-02-08T13:59:54.834Z,28.7
2023-02-08T14:05:32.438Z,26.8
2023-02-08T14:11:09.010Z,25.1
2023-02-08T14:16:34.756Z,23.9
2023-02-08T14:22:13.514Z,22.1
2023-02-08T14:27:49.719Z,21
2023-02-08T14:33:26.882Z,19.5
2023-02-08T14:39:13.100Z,17.9
2023-02-08T14:44:35.272Z,16.6
2023-02-08T14:50:15.715Z,15.5
2023-02-08T14:55:37.069Z,14.6
2023-02-08T15:00:58.665Z,13.4
2023-02-08T15:06:38.644Z,12
2023-02-08T15:12:21.136Z,10.6
2023-02-08T15:18:00.214Z,9.4
2023-02-08T15:23:40.570Z,8.2
2023-02-08T15:29:18.122Z,7.1
2023-02-08T15:35:05.669Z,6
2023-02-08T15:40:43.381Z,4.9
2023-02-08T15:46:21.349Z,3.9
2023-02-08T15:51:58.407Z,3.1
2023-02-08T15:57:31.215Z,2.3
2023-02-08T16:02:53.783Z,1.6
2023-02-08T16:08:31.286Z,0.8
2023-02-08T16:13:37.670Z,0.2
2023-02-08T16:19:35.306Z,-0.6
2023-02-08T16:25:01.563Z,-1.2
2023-02-08T16:30:39.203Z,-1.8
2023-02-08T16:36:18.084Z,-2.3
2023-02-08T16:42:03.667Z,-2.9
2023-02-08T16:47:49.184Z,-3.4
2023-02-08T16:53:44.607Z,-3.9
2023-02-08T16:59:05.676Z,-4.3
2023-02-08T17:04:47.133Z,-4.6
2023-02-08T17:10:24.342Z,-4.9
2023-02-08T17:16:13.131Z,-5.2
2023-02-08T17:21:51.446Z,-5.4
2023-02-08T17:27:31.297Z,-5.6
2023-02-08T17:32:54.717Z,-5.8
2023-02-08T17:38:32.363Z,-5.9
2023-02-08T17:44:09.436Z,-6.1
2023-02-08T17:49:31.351Z,-6.3
2023-02-08T17:55:11.387Z,-6.4
2023-02-08T18:00:38.016Z,-6.4
2023-02-08T18:06:16.411Z,-6.6
2023-02-08T18:11:54.800Z,-6.6
2023-02-08T18:17:33.055Z,-6.8
2023-02-08T18:23:10.797Z,-6.8
2023-02-08T18:28:33.260Z,-6.9
2023-02-08T18:34:11.993Z,-6.9
2023-02-08T18:39:52.665Z,-6.9
2023-02-08T18:45:30.544Z,-7
2023-02-08T18:51:08.353Z,-7.1
2023-02-08T18:57:03.416Z,-7.1
2023-02-08T19:02:27.101Z,-7.1
2023-02-08T19:08:04.775Z,-7.2
2023-02-08T19:13:42.908Z,-7.2
2023-02-08T19:19:20.677Z,-7.2
2023-02-08T19:24:58.343Z,-7.3
2023-02-08T19:30:20.101Z,-7.3
2023-02-08T19:35:58.893Z,-7.3
2023-02-08T19:41:36.232Z,-7.4
2023-02-08T19:47:14.503Z,-7.4
2023-02-08T19:53:11.411Z,-7.4
2023-02-08T19:58:17.608Z,-7.4
2023-02-08T20:04:11.859Z,-7.5
2023-02-08T20:09:49.758Z,-7.5
2023-02-08T20:15:39.111Z,-7.6
2023-02-08T20:21:19.921Z,-7.7
2023-02-08T20:27:04.750Z,-7.7
2023-02-08T20:32:43.265Z,-7.7
2023-02-08T20:38:36.675Z,-7.7
2023-02-08T20:44:14.022Z,-7.7
2023-02-08T20:50:03.099Z,-7.7
2023-02-08T20:55:45.024Z,-7.6
2023-02-08T21:01:32.099Z,-7.6
2023-02-08T21:06:54.364Z,-7.6
2023-02-08T21:12:33.375Z,-7.6
2023-02-08T21:18:13.886Z,-7.7
2023-02-08T21:23:51.756Z,-7.7
2023-02-08T21:29:29.432Z,-7.7
2023-02-08T21:35:09.849Z,-7.8
2023-02-08T21:40:47.292Z,-7.8
2023-02-08T21:46:25.352Z,-7.8
2023-02-08T21:51:46.719Z,-7.9
2023-02-08T21:57:26.374Z,-7.9
2023-02-08T22:03:04.374Z,-8
2023-02-08T22:08:25.373Z,-8.1
2023-02-08T22:14:06.402Z,-8.1
2023-02-08T22:19:43.955Z,-8.1
2023-02-08T22:25:20.874Z,-8.2
2023-02-08T22:31:00.021Z,-8.2
2023-02-08T22:36:22.571Z,-8.3
2023-02-08T22:41:59.719Z,-8.3
2023-02-08T22:47:37.144Z,-8.3
2023-02-08T22:53:14.588Z,-8.3
2023-02-08T22:58:51.424Z,-8.3
2023-02-08T23:04:28.613Z,-8.4
2023-02-08T23:10:05.686Z,-8.4
2023-02-08T23:15:42.763Z,-8.4
2023-02-08T23:21:21.527Z,-8.5
2023-02-08T23:27:00.657Z,-8.6
2023-02-08T23:32:38.030Z,-8.6
2023-02-08T23:37:59.150Z,-8.7
2023-02-08T23:43:36.967Z,-8.8
2023-02-08T23:48:59.297Z,-8.8
2023-02-08T23:54:36.828Z,-8.8
